sensor_id;sensor_type;location;lat;lon;timestamp;pressure;altitude;pressure_sealevel;temperature;humidity
35716;BME280;21840;44.920;8.616;2023-05-22T00:00:58;100218.38;;;23.79;46.52
35716;BME280;21840;44.920;8.616;2023-05-22T00:03:26;100215.09;;;23.77;46.58
35716;BME280;21840;44.920;8.616;2023-05-22T00:05:53;100215.81;;;23.66;47.00
35716;BME280;21840;44.920;8.616;2023-05-22T00:08:23;100216.88;;;23.65;47.32
35716;BME280;21840;44.920;8.616;2023-05-22T00:10:49;100219.28;;;23.73;46.99
35716;BME280;21840;44.920;8.616;2023-05-22T00:13:14;100222.59;;;23.68;47.06
35716;BME280;21840;44.920;8.616;2023-05-22T00:15:39;100216.59;;;23.55;47.51
35716;BME280;21840;44.920;8.616;2023-05-22T00:18:05;100216.88;;;23.65;47.22
35716;BME280;21840;44.920;8.616;2023-05-22T00:20:30;100217.84;;;23.52;47.37
35716;BME280;21840;44.920;8.616;2023-05-22T00:22:55;100220.28;;;23.72;47.09
35716;BME280;21840;44.920;8.616;2023-05-22T00:25:22;100218.75;;;23.64;47.13
35716;BME280;21840;44.920;8.616;2023-05-22T00:27:47;100207.78;;;23.66;46.89
35716;BME280;21840;44.920;8.616;2023-05-22T00:30:12;100216.66;;;23.66;46.91
35716;BME280;21840;44.920;8.616;2023-05-22T00:32:38;100214.56;;;23.50;47.29
35716;BME280;21840;44.920;8.616;2023-05-22T00:35:04;100208.16;;;23.33;47.52
35716;BME280;21840;44.920;8.616;2023-05-22T00:37:29;100199.88;;;22.91;48.21
35716;BME280;21840;44.920;8.616;2023-05-22T00:39:55;100202.84;;;23.08;47.71
35716;BME280;21840;44.920;8.616;2023-05-22T00:42:21;100207.69;;;22.99;47.34
35716;BME280;21840;44.920;8.616;2023-05-22T00:44:47;100204.31;;;23.03;47.39
35716;BME280;21840;44.920;8.616;2023-05-22T00:47:12;100199.66;;;22.99;47.25
35716;BME280;21840;44.920;8.616;2023-05-22T00:49:38;100207.59;;;22.55;48.14
35716;BME280;21840;44.920;8.616;2023-05-22T00:52:03;100210.50;;;22.79;47.80
35716;BME280;21840;44.920;8.616;2023-05-22T00:54:29;100215.91;;;22.40;48.96
35716;BME280;21840;44.920;8.616;2023-05-22T00:56:55;100220.47;;;22.40;49.00
35716;BME280;21840;44.920;8.616;2023-05-22T00:59:21;100220.13;;;22.30;49.05
35716;BME280;21840;44.920;8.616;2023-05-22T01:01:46;100218.47;;;22.29;48.78
35716;BME280;21840;44.920;8.616;2023-05-22T01:04:12;100211.91;;;22.18;48.95
35716;BME280;21840;44.920;8.616;2023-05-22T01:06:39;100208.25;;;22.12;48.93
35716;BME280;21840;44.920;8.616;2023-05-22T01:09:05;100209.41;;;21.85;49.58
35716;BME280;21840;44.920;8.616;2023-05-22T01:11:32;100215.34;;;21.93;49.22
35716;BME280;21840;44.920;8.616;2023-05-22T01:14:43;100206.94;;;21.90;49.23
35716;BME280;21840;44.920;8.616;2023-05-22T01:16:55;100209.19;;;21.86;49.30
35716;BME280;21840;44.920;8.616;2023-05-22T01:19:32;100214.16;;;21.83;49.28
35716;BME280;21840;44.920;8.616;2023-05-22T01:22:27;100211.09;;;21.79;49.38
35716;BME280;21840;44.920;8.616;2023-05-22T01:32:28;100215.06;;;21.57;49.58
35716;BME280;21840;44.920;8.616;2023-05-22T01:34:55;100209.53;;;21.51;49.77
35716;BME280;21840;44.920;8.616;2023-05-22T01:37:23;100216.31;;;21.34;50.18
35716;BME280;21840;44.920;8.616;2023-05-22T01:39:50;100204.63;;;21.35;50.16
35716;BME280;21840;44.920;8.616;2023-05-22T01:42:16;100203.59;;;21.43;49.95
35716;BME280;21840;44.920;8.616;2023-05-22T01:44:42;100206.69;;;21.33;50.13
35716;BME280;21840;44.920;8.616;2023-05-22T01:47:07;100199.47;;;21.33;50.06
35716;BME280;21840;44.920;8.616;2023-05-22T01:49:33;100205.88;;;21.26;50.21
35716;BME280;21840;44.920;8.616;2023-05-22T01:52:12;100202.19;;;21.20;50.62
35716;BME280;21840;44.920;8.616;2023-05-22T01:54:45;100205.47;;;21.16;50.74
35716;BME280;21840;44.920;8.616;2023-05-22T01:59:45;100201.16;;;21.28;50.72
35716;BME280;21840;44.920;8.616;2023-05-22T02:02:14;100198.91;;;21.18;50.76
35716;BME280;21840;44.920;8.616;2023-05-22T02:04:42;100205.09;;;20.99;51.48
35716;BME280;21840;44.920;8.616;2023-05-22T02:07:10;100199.94;;;21.10;51.10
35716;BME280;21840;44.920;8.616;2023-05-22T02:09:36;100207.75;;;20.99;51.41
35716;BME280;21840;44.920;8.616;2023-05-22T02:12:03;100202.44;;;20.85;51.67
35716;BME280;21840;44.920;8.616;2023-05-22T02:14:29;100207.34;;;21.15;50.96
35716;BME280;21840;44.920;8.616;2023-05-22T02:16:54;100214.13;;;20.98;51.38
35716;BME280;21840;44.920;8.616;2023-05-22T02:19:20;100207.38;;;21.02;51.59
35716;BME280;21840;44.920;8.616;2023-05-22T02:21:46;100212.25;;;21.18;50.92
35716;BME280;21840;44.920;8.616;2023-05-22T02:24:11;100211.25;;;21.19;51.14
35716;BME280;21840;44.920;8.616;2023-05-22T02:26:36;100203.00;;;21.27;50.84
35716;BME280;21840;44.920;8.616;2023-05-22T02:29:03;100202.38;;;21.39;50.55
35716;BME280;21840;44.920;8.616;2023-05-22T02:31:29;100202.75;;;21.49;50.38
35716;BME280;21840;44.920;8.616;2023-05-22T02:33:55;100199.06;;;21.50;50.35
35716;BME280;21840;44.920;8.616;2023-05-22T02:36:20;100193.47;;;21.58;50.37
35716;BME280;21840;44.920;8.616;2023-05-22T02:38:47;100199.88;;;21.57;50.44
35716;BME280;21840;44.920;8.616;2023-05-22T02:41:12;100204.78;;;21.53;50.33
35716;BME280;21840;44.920;8.616;2023-05-22T02:43:37;100207.31;;;21.28;51.14
35716;BME280;21840;44.920;8.616;2023-05-22T02:46:03;100206.03;;;21.51;50.87
35716;BME280;21840;44.920;8.616;2023-05-22T02:48:28;100215.03;;;21.63;50.39
35716;BME280;21840;44.920;8.616;2023-05-22T02:50:54;100221.22;;;21.64;50.30
35716;BME280;21840;44.920;8.616;2023-05-22T02:53:19;100212.09;;;21.00;51.75
35716;BME280;21840;44.920;8.616;2023-05-22T02:55:45;100214.28;;;21.43;50.90
35716;BME280;21840;44.920;8.616;2023-05-22T02:58:11;100214.69;;;21.26;50.92
35716;BME280;21840;44.920;8.616;2023-05-22T03:00:36;100224.91;;;21.69;50.36
35716;BME280;21840;44.920;8.616;2023-05-22T03:03:02;100228.25;;;21.45;50.71
35716;BME280;21840;44.920;8.616;2023-05-22T03:05:27;100222.25;;;21.56;50.71
35716;BME280;21840;44.920;8.616;2023-05-22T03:07:53;100226.41;;;21.45;50.85
35716;BME280;21840;44.920;8.616;2023-05-22T03:10:18;100221.50;;;21.22;50.97
35716;BME280;21840;44.920;8.616;2023-05-22T03:12:43;100226.63;;;21.30;50.70
35716;BME280;21840;44.920;8.616;2023-05-22T03:15:09;100223.31;;;21.28;50.55
35716;BME280;21840;44.920;8.616;2023-05-22T03:17:36;100218.41;;;21.25;50.52
35716;BME280;21840;44.920;8.616;2023-05-22T03:20:02;100219.25;;;21.13;50.92
35716;BME280;21840;44.920;8.616;2023-05-22T03:22:31;100218.84;;;21.22;50.52
35716;BME280;21840;44.920;8.616;2023-05-22T03:24:56;100216.38;;;21.01;50.93
35716;BME280;21840;44.920;8.616;2023-05-22T03:27:21;100219.25;;;21.19;50.39
35716;BME280;21840;44.920;8.616;2023-05-22T03:29:47;100213.88;;;21.32;50.05
35716;BME280;21840;44.920;8.616;2023-05-22T03:32:15;100213.69;;;21.41;49.88
35716;BME280;21840;44.920;8.616;2023-05-22T03:34:40;100218.63;;;21.17;50.42
35716;BME280;21840;44.920;8.616;2023-05-22T03:37:08;100215.75;;;21.25;50.24
35716;BME280;21840;44.920;8.616;2023-05-22T03:39:34;100218.03;;;21.02;50.59
35716;BME280;21840;44.920;8.616;2023-05-22T03:42:09;100222.31;;;21.23;50.16
35716;BME280;21840;44.920;8.616;2023-05-22T03:44:35;100226.03;;;21.15;50.29
35716;BME280;21840;44.920;8.616;2023-05-22T03:47:00;100217.63;;;21.05;50.52
35716;BME280;21840;44.920;8.616;2023-05-22T03:49:25;100218.22;;;21.20;50.25
35716;BME280;21840;44.920;8.616;2023-05-22T03:51:50;100214.72;;;21.20;50.40
35716;BME280;21840;44.920;8.616;2023-05-22T03:54:16;100218.84;;;21.09;50.83
35716;BME280;21840;44.920;8.616;2023-05-22T03:56:41;100222.94;;;21.11;50.79
35716;BME280;21840;44.920;8.616;2023-05-22T03:59:07;100220.66;;;21.28;50.51
35716;BME280;21840;44.920;8.616;2023-05-22T04:01:32;100219.66;;;21.29;50.35
35716;BME280;21840;44.920;8.616;2023-05-22T04:03:57;100222.50;;;21.48;50.33
35716;BME280;21840;44.920;8.616;2023-05-22T04:06:23;100222.69;;;21.53;49.95
35716;BME280;21840;44.920;8.616;2023-05-22T04:08:49;100229.50;;;21.22;50.74
35716;BME280;21840;44.920;8.616;2023-05-22T04:11:15;100232.38;;;21.47;50.10
35716;BME280;21840;44.920;8.616;2023-05-22T04:13:41;100232.56;;;21.46;50.21
35716;BME280;21840;44.920;8.616;2023-05-22T04:16:06;100236.47;;;21.43;49.82
35716;BME280;21840;44.920;8.616;2023-05-22T04:18:31;100239.56;;;21.47;49.86
35716;BME280;21840;44.920;8.616;2023-05-22T04:20:57;100238.13;;;21.44;49.96
35716;BME280;21840;44.920;8.616;2023-05-22T04:23:22;100245.13;;;21.25;50.17
35716;BME280;21840;44.920;8.616;2023-05-22T04:25:47;100246.56;;;21.35;50.06
35716;BME280;21840;44.920;8.616;2023-05-22T04:28:18;100247.53;;;21.60;49.31
35716;BME280;21840;44.920;8.616;2023-05-22T04:30:46;100253.94;;;21.59;49.41
35716;BME280;21840;44.920;8.616;2023-05-22T04:33:11;100250.44;;;21.52;49.63
35716;BME280;21840;44.920;8.616;2023-05-22T04:35:37;100252.88;;;21.60;49.67
35716;BME280;21840;44.920;8.616;2023-05-22T04:38:07;100264.97;;;21.76;49.36
35716;BME280;21840;44.920;8.616;2023-05-22T04:40:32;100260.91;;;21.53;49.77
35716;BME280;21840;44.920;8.616;2023-05-22T04:42:58;100254.50;;;21.61;49.70
35716;BME280;21840;44.920;8.616;2023-05-22T04:45:25;100261.97;;;21.32;50.13
35716;BME280;21840;44.920;8.616;2023-05-22T04:47:56;100268.75;;;21.42;49.86
35716;BME280;21840;44.920;8.616;2023-05-22T04:50:22;100272.59;;;21.72;49.04
35716;BME280;21840;44.920;8.616;2023-05-22T04:52:48;100276.34;;;21.45;49.51
35716;BME280;21840;44.920;8.616;2023-05-22T04:55:13;100275.94;;;21.28;49.54
35716;BME280;21840;44.920;8.616;2023-05-22T04:57:39;100271.22;;;21.30;49.58
35716;BME280;21840;44.920;8.616;2023-05-22T05:00:04;100268.09;;;21.53;49.12
35716;BME280;21840;44.920;8.616;2023-05-22T05:02:32;100275.88;;;21.68;48.89
35716;BME280;21840;44.920;8.616;2023-05-22T05:04:57;100281.81;;;21.76;48.62
35716;BME280;21840;44.920;8.616;2023-05-22T05:07:23;100282.41;;;21.92;48.35
35716;BME280;21840;44.920;8.616;2023-05-22T05:09:49;100288.16;;;21.89;48.17
35716;BME280;21840;44.920;8.616;2023-05-22T05:12:15;100281.38;;;21.86;48.25
35716;BME280;21840;44.920;8.616;2023-05-22T05:14:40;100281.16;;;21.94;48.18
35716;BME280;21840;44.920;8.616;2023-05-22T05:17:05;100290.75;;;22.09;47.83
35716;BME280;21840;44.920;8.616;2023-05-22T05:19:31;100282.78;;;21.95;47.74
35716;BME280;21840;44.920;8.616;2023-05-22T05:21:58;100279.91;;;21.97;47.85
35716;BME280;21840;44.920;8.616;2023-05-22T05:24:24;100281.25;;;21.61;48.77
35716;BME280;21840;44.920;8.616;2023-05-22T05:26:49;100277.94;;;21.66;48.75
35716;BME280;21840;44.920;8.616;2023-05-22T05:29:16;100280.47;;;22.12;47.86
35716;BME280;21840;44.920;8.616;2023-05-22T05:31:50;100285.94;;;22.31;47.45
35716;BME280;21840;44.920;8.616;2023-05-22T05:34:38;100277.28;;;22.35;47.40
35716;BME280;21840;44.920;8.616;2023-05-22T05:37:15;100292.53;;;22.28;47.72
35716;BME280;21840;44.920;8.616;2023-05-22T05:39:40;100280.31;;;22.46;47.44
35716;BME280;21840;44.920;8.616;2023-05-22T05:42:07;100291.44;;;22.49;47.26
35716;BME280;21840;44.920;8.616;2023-05-22T05:44:32;100293.38;;;22.67;46.64
35716;BME280;21840;44.920;8.616;2023-05-22T05:46:58;100288.66;;;22.17;47.45
35716;BME280;21840;44.920;8.616;2023-05-22T05:49:25;100298.88;;;22.34;47.47
35716;BME280;21840;44.920;8.616;2023-05-22T05:51:51;100280.72;;;22.04;47.93
35716;BME280;21840;44.920;8.616;2023-05-22T05:54:17;100301.22;;;22.24;47.30
35716;BME280;21840;44.920;8.616;2023-05-22T05:56:44;100302.03;;;22.17;47.46
35716;BME280;21840;44.920;8.616;2023-05-22T05:59:10;100309.47;;;22.22;47.46
35716;BME280;21840;44.920;8.616;2023-05-22T06:01:36;100307.16;;;22.26;47.37
35716;BME280;21840;44.920;8.616;2023-05-22T06:04:03;100304.81;;;22.49;46.90
35716;BME280;21840;44.920;8.616;2023-05-22T06:06:30;100308.94;;;22.45;46.94
35716;BME280;21840;44.920;8.616;2023-05-22T06:09:09;100312.88;;;22.36;47.08
35716;BME280;21840;44.920;8.616;2023-05-22T06:11:49;100314.38;;;22.64;46.69
35716;BME280;21840;44.920;8.616;2023-05-22T06:14:15;100316.88;;;22.58;46.91
35716;BME280;21840;44.920;8.616;2023-05-22T06:16:40;100315.28;;;22.82;46.49
35716;BME280;21840;44.920;8.616;2023-05-22T06:19:06;100314.00;;;22.92;46.23
35716;BME280;21840;44.920;8.616;2023-05-22T06:21:32;100317.22;;;22.37;46.68
35716;BME280;21840;44.920;8.616;2023-05-22T06:23:57;100320.59;;;22.57;46.43
35716;BME280;21840;44.920;8.616;2023-05-22T06:26:23;100326.34;;;22.99;45.95
35716;BME280;21840;44.920;8.616;2023-05-22T06:28:50;100327.16;;;22.93;46.07
35716;BME280;21840;44.920;8.616;2023-05-22T06:31:17;100326.94;;;23.01;46.22
35716;BME280;21840;44.920;8.616;2023-05-22T06:33:45;100327.03;;;23.13;45.79
35716;BME280;21840;44.920;8.616;2023-05-22T06:36:10;100324.59;;;23.12;46.05
35716;BME280;21840;44.920;8.616;2023-05-22T06:38:36;100316.75;;;23.35;45.58
35716;BME280;21840;44.920;8.616;2023-05-22T06:41:10;100330.00;;;23.30;45.60
35716;BME280;21840;44.920;8.616;2023-05-22T06:43:35;100320.66;;;23.58;44.98
35716;BME280;21840;44.920;8.616;2023-05-22T06:46:11;100316.25;;;23.45;45.57
35716;BME280;21840;44.920;8.616;2023-05-22T06:48:39;100328.69;;;23.83;44.95
35716;BME280;21840;44.920;8.616;2023-05-22T06:51:20;100323.94;;;23.85;44.62
35716;BME280;21840;44.920;8.616;2023-05-22T06:53:49;100323.66;;;24.23;44.10
35716;BME280;21840;44.920;8.616;2023-05-22T06:56:22;100324.97;;;24.02;44.34
35716;BME280;21840;44.920;8.616;2023-05-22T06:58:57;100325.34;;;24.24;43.96
35716;BME280;21840;44.920;8.616;2023-05-22T07:01:38;100324.22;;;24.62;43.32
35716;BME280;21840;44.920;8.616;2023-05-22T07:04:08;100325.22;;;24.80;42.93
35716;BME280;21840;44.920;8.616;2023-05-22T07:06:45;100327.03;;;25.09;42.77
35716;BME280;21840;44.920;8.616;2023-05-22T07:09:12;100332.81;;;25.25;42.62
35716;BME280;21840;44.920;8.616;2023-05-22T07:11:40;100333.88;;;25.59;41.98
35716;BME280;21840;44.920;8.616;2023-05-22T07:14:07;100333.03;;;25.70;41.99
35716;BME280;21840;44.920;8.616;2023-05-22T07:16:32;100330.66;;;26.09;41.06
35716;BME280;21840;44.920;8.616;2023-05-22T07:18:59;100333.88;;;26.23;40.73
35716;BME280;21840;44.920;8.616;2023-05-22T07:21:25;100336.03;;;26.21;40.62
35716;BME280;21840;44.920;8.616;2023-05-22T07:23:52;100336.41;;;26.41;40.60
35716;BME280;21840;44.920;8.616;2023-05-22T07:26:17;100335.25;;;25.85;41.59
35716;BME280;21840;44.920;8.616;2023-05-22T07:28:48;100335.44;;;26.19;41.55
35716;BME280;21840;44.920;8.616;2023-05-22T07:31:17;100332.44;;;26.73;40.75
35716;BME280;21840;44.920;8.616;2023-05-22T07:33:44;100331.66;;;26.89;40.30
35716;BME280;21840;44.920;8.616;2023-05-22T07:36:09;100329.78;;;26.32;41.12
35716;BME280;21840;44.920;8.616;2023-05-22T07:38:37;100332.31;;;25.98;42.00
35716;BME280;21840;44.920;8.616;2023-05-22T07:41:03;100338.94;;;26.19;41.64
35716;BME280;21840;44.920;8.616;2023-05-22T07:43:29;100330.34;;;25.82;41.98
35716;BME280;21840;44.920;8.616;2023-05-22T07:45:58;100326.47;;;26.01;41.95
35716;BME280;21840;44.920;8.616;2023-05-22T07:48:28;100319.88;;;26.21;41.55
35716;BME280;21840;44.920;8.616;2023-05-22T07:50:53;100324.31;;;26.56;41.18
35716;BME280;21840;44.920;8.616;2023-05-22T07:53:19;100330.66;;;26.95;40.63
35716;BME280;21840;44.920;8.616;2023-05-22T07:55:48;100324.56;;;26.54;41.53
35716;BME280;21840;44.920;8.616;2023-05-22T07:58:13;100328.50;;;26.80;41.00
35716;BME280;21840;44.920;8.616;2023-05-22T08:00:41;100314.06;;;26.70;41.20
35716;BME280;21840;44.920;8.616;2023-05-22T08:03:06;100315.00;;;27.09;40.66
35716;BME280;21840;44.920;8.616;2023-05-22T08:05:32;100305.16;;;27.03;40.73
35716;BME280;21840;44.920;8.616;2023-05-22T08:07:57;100316.44;;;26.83;41.38
35716;BME280;21840;44.920;8.616;2023-05-22T08:10:22;100306.06;;;26.75;41.44
35716;BME280;21840;44.920;8.616;2023-05-22T08:12:48;100310.00;;;26.27;42.42
35716;BME280;21840;44.920;8.616;2023-05-22T08:15:13;100301.50;;;26.18;42.78
35716;BME280;21840;44.920;8.616;2023-05-22T08:17:38;100302.53;;;25.29;44.46
35716;BME280;21840;44.920;8.616;2023-05-22T08:20:04;100304.50;;;25.46;44.60
35716;BME280;21840;44.920;8.616;2023-05-22T08:22:29;100301.31;;;26.36;42.92
35716;BME280;21840;44.920;8.616;2023-05-22T08:24:55;100299.06;;;26.04;43.15
35716;BME280;21840;44.920;8.616;2023-05-22T08:27:20;100300.06;;;26.27;42.94
35716;BME280;21840;44.920;8.616;2023-05-22T08:29:46;100297.09;;;26.00;43.62
35716;BME280;21840;44.920;8.616;2023-05-22T08:32:11;100303.81;;;26.55;42.63
35716;BME280;21840;44.920;8.616;2023-05-22T08:34:36;100293.66;;;26.45;42.25
35716;BME280;21840;44.920;8.616;2023-05-22T08:37:04;100296.06;;;26.30;42.89
35716;BME280;21840;44.920;8.616;2023-05-22T08:39:29;100290.41;;;26.88;41.77
35716;BME280;21840;44.920;8.616;2023-05-22T08:41:55;100295.81;;;26.88;41.61
35716;BME280;21840;44.920;8.616;2023-05-22T08:44:20;100292.94;;;27.29;40.70
35716;BME280;21840;44.920;8.616;2023-05-22T08:46:50;100291.44;;;26.54;42.56
35716;BME280;21840;44.920;8.616;2023-05-22T08:49:16;100287.88;;;27.32;40.94
35716;BME280;21840;44.920;8.616;2023-05-22T08:51:42;100291.22;;;27.40;41.17
35716;BME280;21840;44.920;8.616;2023-05-22T08:54:11;100285.63;;;27.63;40.66
35716;BME280;21840;44.920;8.616;2023-05-22T08:56:39;100288.06;;;27.48;40.54
35716;BME280;21840;44.920;8.616;2023-05-22T08:59:04;100292.94;;;27.12;41.52
35716;BME280;21840;44.920;8.616;2023-05-22T09:01:30;100292.38;;;27.66;40.83
35716;BME280;21840;44.920;8.616;2023-05-22T09:04:00;100284.91;;;27.00;42.20
35716;BME280;21840;44.920;8.616;2023-05-22T09:06:26;100287.81;;;26.94;42.27
35716;BME280;21840;44.920;8.616;2023-05-22T09:08:53;100289.56;;;27.05;41.93
35716;BME280;21840;44.920;8.616;2023-05-22T09:11:19;100287.72;;;27.22;41.67
35716;BME280;21840;44.920;8.616;2023-05-22T09:13:45;100286.09;;;27.60;41.31
35716;BME280;21840;44.920;8.616;2023-05-22T09:16:11;100288.00;;;27.43;41.52
35716;BME280;21840;44.920;8.616;2023-05-22T09:18:37;100279.13;;;27.64;41.16
35716;BME280;21840;44.920;8.616;2023-05-22T09:21:02;100281.22;;;27.79;41.17
35716;BME280;21840;44.920;8.616;2023-05-22T09:23:28;100295.19;;;27.54;41.40
35716;BME280;21840;44.920;8.616;2023-05-22T09:25:54;100295.88;;;27.44;41.90
35716;BME280;21840;44.920;8.616;2023-05-22T09:28:20;100296.19;;;27.87;40.89
35716;BME280;21840;44.920;8.616;2023-05-22T09:30:49;100300.38;;;28.22;40.21
35716;BME280;21840;44.920;8.616;2023-05-22T09:33:15;100294.88;;;28.38;40.20
35716;BME280;21840;44.920;8.616;2023-05-22T09:35:41;100296.81;;;28.16;40.68
35716;BME280;21840;44.920;8.616;2023-05-22T09:38:10;100303.75;;;28.88;39.21
35716;BME280;21840;44.920;8.616;2023-05-22T09:40:36;100297.31;;;28.94;39.10
35716;BME280;21840;44.920;8.616;2023-05-22T09:43:11;100297.56;;;29.30;38.03
35716;BME280;21840;44.920;8.616;2023-05-22T09:45:41;100298.78;;;28.48;39.28
35716;BME280;21840;44.920;8.616;2023-05-22T09:48:07;100285.91;;;29.24;38.25
35716;BME280;21840;44.920;8.616;2023-05-22T09:50:32;100291.88;;;29.69;37.57
35716;BME280;21840;44.920;8.616;2023-05-22T09:53:00;100289.63;;;30.14;36.67
35716;BME280;21840;44.920;8.616;2023-05-22T09:55:25;100283.38;;;30.08;36.78
35716;BME280;21840;44.920;8.616;2023-05-22T09:57:52;100277.03;;;29.29;38.37
35716;BME280;21840;44.920;8.616;2023-05-22T10:00:18;100279.91;;;29.65;37.02
35716;BME280;21840;44.920;8.616;2023-05-22T10:02:48;100284.56;;;30.48;35.80
35716;BME280;21840;44.920;8.616;2023-05-22T10:05:13;100272.38;;;30.76;35.28
35716;BME280;21840;44.920;8.616;2023-05-22T10:07:46;100274.56;;;31.00;35.19
35716;BME280;21840;44.920;8.616;2023-05-22T10:10:14;100279.44;;;31.13;34.63
35716;BME280;21840;44.920;8.616;2023-05-22T10:12:41;100276.44;;;31.20;34.46
35716;BME280;21840;44.920;8.616;2023-05-22T10:15:07;100275.59;;;31.45;33.82
35716;BME280;21840;44.920;8.616;2023-05-22T10:17:34;100274.22;;;31.37;33.40
35716;BME280;21840;44.920;8.616;2023-05-22T10:20:00;100268.25;;;31.30;33.63
35716;BME280;21840;44.920;8.616;2023-05-22T10:22:28;100266.69;;;30.72;32.73
35716;BME280;21840;44.920;8.616;2023-05-22T10:24:57;100264.78;;;31.09;32.51
35716;BME280;21840;44.920;8.616;2023-05-22T10:27:22;100274.56;;;30.84;32.57
35716;BME280;21840;44.920;8.616;2023-05-22T10:32:44;100281.34;;;30.92;32.74
35716;BME280;21840;44.920;8.616;2023-05-22T10:35:15;100269.38;;;30.62;31.96
35716;BME280;21840;44.920;8.616;2023-05-22T10:37:56;100265.63;;;30.58;31.91
35716;BME280;21840;44.920;8.616;2023-05-22T10:40:28;100259.34;;;30.32;32.41
35716;BME280;21840;44.920;8.616;2023-05-22T10:42:58;100258.44;;;30.01;33.46
35716;BME280;21840;44.920;8.616;2023-05-22T10:45:26;100259.94;;;29.66;33.49
35716;BME280;21840;44.920;8.616;2023-05-22T10:50:28;100252.28;;;29.63;33.10
35716;BME280;21840;44.920;8.616;2023-05-22T10:53:16;100253.44;;;29.72;32.81
35716;BME280;21840;44.920;8.616;2023-05-22T10:55:45;100248.44;;;30.12;31.82
35716;BME280;21840;44.920;8.616;2023-05-22T10:58:17;100243.94;;;29.64;32.27
35716;BME280;21840;44.920;8.616;2023-05-22T11:00:43;100253.63;;;29.55;31.85
35716;BME280;21840;44.920;8.616;2023-05-22T11:03:09;100242.50;;;29.52;32.40
35716;BME280;21840;44.920;8.616;2023-05-22T11:05:35;100239.78;;;30.15;31.98
35716;BME280;21840;44.920;8.616;2023-05-22T11:08:34;100242.00;;;30.28;31.52
35716;BME280;21840;44.920;8.616;2023-05-22T11:10:53;100248.38;;;29.91;31.57
35716;BME280;21840;44.920;8.616;2023-05-22T11:13:19;100244.00;;;29.80;31.47
35716;BME280;21840;44.920;8.616;2023-05-22T11:15:44;100237.75;;;29.69;32.37
35716;BME280;21840;44.920;8.616;2023-05-22T11:18:10;100235.66;;;29.92;31.83
35716;BME280;21840;44.920;8.616;2023-05-22T11:20:36;100223.53;;;30.15;31.36
35716;BME280;21840;44.920;8.616;2023-05-22T11:23:03;100213.75;;;30.03;31.56
35716;BME280;21840;44.920;8.616;2023-05-22T11:25:31;100213.78;;;30.24;31.74
35716;BME280;21840;44.920;8.616;2023-05-22T11:27:56;100222.25;;;30.48;30.93
35716;BME280;21840;44.920;8.616;2023-05-22T11:30:25;100217.63;;;30.94;30.46
35716;BME280;21840;44.920;8.616;2023-05-22T11:32:51;100216.28;;;30.56;30.89
35716;BME280;21840;44.920;8.616;2023-05-22T11:35:18;100221.69;;;30.46;30.42
35716;BME280;21840;44.920;8.616;2023-05-22T11:37:43;100210.28;;;30.74;30.14
35716;BME280;21840;44.920;8.616;2023-05-22T11:40:09;100215.97;;;30.63;30.52
35716;BME280;21840;44.920;8.616;2023-05-22T11:42:35;100200.00;;;30.61;29.73
35716;BME280;21840;44.920;8.616;2023-05-22T11:45:02;100214.03;;;30.12;30.70
35716;BME280;21840;44.920;8.616;2023-05-22T11:47:27;100207.03;;;30.21;30.42
35716;BME280;21840;44.920;8.616;2023-05-22T11:49:53;100209.19;;;30.19;30.76
35716;BME280;21840;44.920;8.616;2023-05-22T11:52:18;100193.44;;;29.85;31.51
35716;BME280;21840;44.920;8.616;2023-05-22T11:54:46;100199.69;;;30.17;31.13
35716;BME280;21840;44.920;8.616;2023-05-22T11:57:12;100198.34;;;30.09;30.86
35716;BME280;21840;44.920;8.616;2023-05-22T11:59:38;100198.94;;;30.37;30.76
35716;BME280;21840;44.920;8.616;2023-05-22T12:02:03;100200.75;;;30.00;29.86
35716;BME280;21840;44.920;8.616;2023-05-22T12:04:28;100198.03;;;29.95;30.17
35716;BME280;21840;44.920;8.616;2023-05-22T12:06:54;100197.03;;;30.32;29.96
35716;BME280;21840;44.920;8.616;2023-05-22T12:09:20;100195.97;;;30.28;29.71
35716;BME280;21840;44.920;8.616;2023-05-22T12:11:45;100192.97;;;30.29;29.01
35716;BME280;21840;44.920;8.616;2023-05-22T12:14:11;100195.88;;;30.02;30.31
35716;BME280;21840;44.920;8.616;2023-05-22T12:16:36;100189.94;;;30.16;30.76
35716;BME280;21840;44.920;8.616;2023-05-22T12:19:05;100191.31;;;30.13;30.78
35716;BME280;21840;44.920;8.616;2023-05-22T12:21:30;100179.91;;;30.11;30.50
35716;BME280;21840;44.920;8.616;2023-05-22T12:23:56;100183.47;;;30.42;29.42
35716;BME280;21840;44.920;8.616;2023-05-22T12:26:21;100193.78;;;30.50;30.07
35716;BME280;21840;44.920;8.616;2023-05-22T12:28:47;100187.03;;;30.48;29.51
35716;BME280;21840;44.920;8.616;2023-05-22T12:31:19;100178.34;;;30.51;28.99
35716;BME280;21840;44.920;8.616;2023-05-22T12:33:44;100188.91;;;30.47;28.77
35716;BME280;21840;44.920;8.616;2023-05-22T12:36:10;100183.19;;;30.23;28.74
35716;BME280;21840;44.920;8.616;2023-05-22T12:38:35;100174.84;;;30.45;29.16
35716;BME280;21840;44.920;8.616;2023-05-22T12:41:01;100175.34;;;30.58;29.29
35716;BME280;21840;44.920;8.616;2023-05-22T12:43:26;100179.41;;;30.86;28.47
35716;BME280;21840;44.920;8.616;2023-05-22T12:45:52;100164.66;;;31.17;27.99
35716;BME280;21840;44.920;8.616;2023-05-22T12:48:17;100163.59;;;31.13;27.93
35716;BME280;21840;44.920;8.616;2023-05-22T12:50:44;100172.06;;;30.76;28.19
35716;BME280;21840;44.920;8.616;2023-05-22T12:53:10;100155.28;;;30.74;28.48
35716;BME280;21840;44.920;8.616;2023-05-22T12:55:36;100170.44;;;30.70;28.57
35716;BME280;21840;44.920;8.616;2023-05-22T12:58:01;100160.44;;;30.86;28.71
35716;BME280;21840;44.920;8.616;2023-05-22T13:00:27;100165.31;;;30.89;28.02
35716;BME280;21840;44.920;8.616;2023-05-22T13:02:52;100149.50;;;31.11;27.43
35716;BME280;21840;44.920;8.616;2023-05-22T13:05:18;100158.25;;;30.93;28.77